Time;durP1;ratioP1;P1;durP2;ratioP2;P2;SDS_P1;SDS_P2;PMS_P1;PMS_P2;Temp;Humidity;BMP_temperature;BMP_pressure;BME280_temperature;BME280_humidity;BME280_pressure;Samples;Min_cycle;Max_cycle;Signal;HPM_P1;HPM_P2
2023/03/04 00:00:07;;;;;;;67.63;57.60;;;3.80;99.90;;;;;;5051858;28;20394;-59
2023/03/04 00:02:33;;;;;;;68.15;55.90;;;3.80;99.90;;;;;;5051621;28;20033;-60
2023/03/04 00:04:59;;;;;;;63.13;51.88;;;3.90;99.90;;;;;;5052084;28;20051;-60
2023/03/04 00:07:25;;;;;;;65.63;51.00;;;3.90;99.90;;;;;;5051847;28;20036;-59
2023/03/04 00:09:50;;;;;;;57.45;49.55;;;3.90;99.90;;;;;;5051862;28;20079;-60
2023/03/04 00:12:16;;;;;;;55.70;45.05;;;3.90;99.90;;;;;;5051749;28;20041;-59
2023/03/04 00:14:42;;;;;;;53.13;45.40;;;4.00;99.90;;;;;;5051632;28;20045;-60
2023/03/04 00:17:08;;;;;;;54.42;44.03;;;4.00;99.90;;;;;;5051899;28;20053;-60
2023/03/04 00:19:34;;;;;;;51.90;44.50;;;4.00;99.90;;;;;;5051622;28;20033;-60
2023/03/04 00:22:00;;;;;;;50.35;43.75;;;4.00;99.90;;;;;;5051717;28;20029;-60
2023/03/04 00:24:26;;;;;;;53.30;42.75;;;4.00;99.90;;;;;;5051793;28;20033;-59
2023/03/04 00:26:53;;;;;;;47.47;42.15;;;4.10;99.90;;;;;;5051577;28;20063;-60
2023/03/04 00:29:18;;;;;;;49.20;41.28;;;4.20;99.90;;;;;;5052394;28;20025;-60
2023/03/04 00:31:44;;;;;;;45.90;40.08;;;4.20;99.90;;;;;;5055229;28;20033;-60
2023/03/04 00:34:10;;;;;;;45.83;37.85;;;4.20;99.90;;;;;;5055385;28;20029;-60
2023/03/04 00:36:35;;;;;;;41.03;36.50;;;4.20;99.90;;;;;;5055567;28;20456;-60
2023/03/04 00:39:01;;;;;;;44.50;37.22;;;4.30;99.90;;;;;;5055351;28;20021;-60
2023/03/04 00:41:27;;;;;;;39.60;35.30;;;4.30;99.90;;;;;;5055470;28;20039;-60
2023/03/04 00:43:52;;;;;;;44.35;36.15;;;4.40;99.90;;;;;;5055668;28;20028;-60
2023/03/04 00:46:18;;;;;;;39.53;35.08;;;4.40;99.90;;;;;;5054724;28;20032;-60
2023/03/04 00:48:44;;;;;;;39.10;34.97;;;4.30;99.90;;;;;;5055223;28;20025;-60
2023/03/04 00:51:09;;;;;;;36.42;32.47;;;4.30;99.90;;;;;;5054830;28;20104;-60
2023/03/04 00:53:35;;;;;;;35.30;31.50;;;4.30;99.90;;;;;;5054302;28;20029;-59
2023/03/04 00:56:01;;;;;;;37.22;32.85;;;4.30;99.90;;;;;;5055166;28;20025;-60
2023/03/04 00:58:26;;;;;;;38.88;34.17;;;4.20;99.90;;;;;;5055190;28;20021;-59
2023/03/04 01:00:52;;;;;;;37.25;33.30;;;4.10;99.90;;;;;;5054803;28;20028;-60
2023/03/04 01:03:18;;;;;;;38.25;33.40;;;3.90;99.90;;;;;;5055366;28;20052;-59
2023/03/04 01:05:44;;;;;;;39.45;33.75;;;3.70;99.90;;;;;;5054953;28;20130;-60
2023/03/04 01:08:09;;;;;;;41.05;35.60;;;3.50;99.90;;;;;;5054802;28;20044;-60
2023/03/04 01:10:35;;;;;;;55.42;46.63;;;3.60;99.90;;;;;;5054836;28;20032;-59
2023/03/04 01:13:01;;;;;;;48.67;41.15;;;3.50;99.90;;;;;;5054648;28;20044;-59
2023/03/04 01:15:26;;;;;;;45.63;39.08;;;3.50;99.90;;;;;;5054415;28;20039;-59
2023/03/04 01:17:52;;;;;;;43.13;38.45;;;3.50;99.90;;;;;;5054744;28;20021;-59
2023/03/04 01:20:18;;;;;;;48.83;41.00;;;3.40;99.90;;;;;;5053738;28;20033;-59
2023/03/04 01:22:44;;;;;;;49.22;39.85;;;3.40;99.90;;;;;;5054729;28;20021;-59
2023/03/04 01:25:10;;;;;;;73.88;47.95;;;3.30;99.90;;;;;;5054708;28;20017;-59
2023/03/04 01:27:35;;;;;;;83.32;51.28;;;3.30;99.90;;;;;;5054489;28;20056;-60
2023/03/04 01:30:02;;;;;;;93.70;53.30;;;3.00;99.90;;;;;;5054042;28;20083;-59
2023/03/04 01:32:28;;;;;;;85.10;50.92;;;2.80;99.90;;;;;;5054729;28;20033;-59
2023/03/04 01:34:54;;;;;;;79.22;49.35;;;2.60;99.90;;;;;;5054313;28;20439;-59
2023/03/04 01:37:19;;;;;;;75.45;48.38;;;2.60;99.90;;;;;;5054394;28;20025;-60
2023/03/04 01:39:45;;;;;;;69.90;43.72;;;2.60;99.90;;;;;;5054183;28;20021;-60
2023/03/04 01:42:18;;;;;;;57.65;40.15;;;2.60;99.90;;;;;;5053407;28;20390;-60
2023/03/04 01:44:45;;;;;;;53.60;37.85;;;2.60;99.90;;;;;;5053761;28;20478;-59
2023/03/04 01:47:11;;;;;;;52.17;37.17;;;2.50;99.90;;;;;;5054181;28;20055;-60
2023/03/04 01:49:37;;;;;;;41.67;34.30;;;2.50;99.90;;;;;;5053922;28;20139;-59
2023/03/04 01:52:02;;;;;;;40.53;33.53;;;2.50;99.90;;;;;;5053978;28;20060;-59
2023/03/04 01:54:28;;;;;;;45.42;32.60;;;2.40;99.90;;;;;;5054687;28;20045;-59
2023/03/04 01:56:55;;;;;;;40.08;34.10;;;2.20;99.90;;;;;;5052680;28;20108;-60
2023/03/04 01:59:23;;;;;;;41.13;34.88;;;2.00;99.90;;;;;;5053642;28;20029;-59
2023/03/04 02:01:52;;;;;;;42.00;35.33;;;1.90;99.90;;;;;;5054180;28;20102;-59
2023/03/04 02:04:21;;;;;;;44.13;31.13;;;1.80;99.90;;;;;;5053906;28;20448;-59
2023/03/04 02:06:47;;;;;;;46.45;32.13;;;1.80;99.90;;;;;;5053709;28;20024;-59
2023/03/04 02:09:15;;;;;;;49.35;33.70;;;1.70;99.90;;;;;;5054181;28;20071;-59
2023/03/04 02:11:41;;;;;;;42.50;37.28;;;1.80;99.90;;;;;;5053384;28;20079;-58
2023/03/04 02:14:08;;;;;;;46.13;38.70;;;1.90;99.90;;;;;;5053142;28;20072;-59
2023/03/04 02:16:34;;;;;;;49.25;33.35;;;1.90;99.90;;;;;;5053855;28;20108;-60
2023/03/04 02:19:00;;;;;;;40.72;35.90;;;1.80;99.90;;;;;;5053498;28;20538;-59
2023/03/04 02:21:32;;;;;;;51.72;34.65;;;1.60;99.90;;;;;;5053485;28;20033;-59
2023/03/04 02:24:32;;;;;;;53.72;34.78;;;1.70;99.90;;;;;;5053501;28;20025;-59
2023/03/04 02:26:58;;;;;;;52.88;36.15;;;1.50;99.90;;;;;;5051353;28;20121;-59
2023/03/04 02:29:24;;;;;;;46.90;34.25;;;1.30;99.90;;;;;;5053179;28;20044;-59
2023/03/04 02:31:52;;;;;;;50.60;34.55;;;1.10;99.90;;;;;;5053380;28;20516;-59
2023/03/04 02:34:19;;;;;;;49.83;34.65;;;1.00;99.90;;;;;;5053379;28;20067;-59
2023/03/04 02:36:47;;;;;;;50.17;36.72;;;0.80;99.90;;;;;;5053712;28;20477;-59
2023/03/04 02:39:18;;;;;;;51.63;35.83;;;0.90;99.90;;;;;;5053341;28;20474;-59
2023/03/04 02:41:44;;;;;;;55.63;37.17;;;0.90;99.90;;;;;;5052716;28;20085;-59
2023/03/04 02:44:33;;;;;;;52.70;36.67;;;0.80;99.90;;;;;;5053250;28;20025;-59
2023/03/04 02:47:00;;;;;;;53.45;37.47;;;0.90;99.90;;;;;;5053015;28;20470;-59
2023/03/04 02:49:27;;;;;;;58.70;39.67;;;0.90;99.90;;;;;;5052864;28;20020;-59
2023/03/04 02:52:00;;;;;;;57.78;40.53;;;0.80;99.90;;;;;;5052746;28;20088;-59
2023/03/04 02:54:26;;;;;;;56.85;40.35;;;0.90;99.90;;;;;;5052978;28;20017;-59
2023/03/04 02:56:54;;;;;;;56.75;38.60;;;0.80;99.90;;;;;;5052476;28;20105;-59
2023/03/04 02:59:21;;;;;;;56.38;39.15;;;0.70;99.90;;;;;;5052730;28;20029;-59
2023/03/04 03:01:47;;;;;;;59.42;38.42;;;0.60;99.90;;;;;;5052907;28;20021;-59
2023/03/04 03:04:13;;;;;;;61.28;40.90;;;0.60;99.90;;;;;;5052935;28;20029;-60
2023/03/04 03:06:40;;;;;;;58.85;42.13;;;0.70;99.90;;;;;;5052929;28;20390;-59
2023/03/04 03:09:06;;;;;;;62.80;41.25;;;0.70;99.90;;;;;;5052999;28;20021;-61
2023/03/04 03:11:32;;;;;;;59.35;39.70;;;0.50;99.90;;;;;;5052304;28;20037;-60
2023/03/04 03:13:58;;;;;;;71.75;49.65;;;0.40;99.90;;;;;;5052386;28;20049;-60
2023/03/04 03:16:24;;;;;;;85.40;55.25;;;0.50;99.90;;;;;;5052492;28;20083;-60
2023/03/04 03:18:50;;;;;;;76.65;50.72;;;0.40;99.90;;;;;;5052365;28;20449;-60
2023/03/04 03:21:16;;;;;;;78.85;55.08;;;0.20;99.90;;;;;;5052357;28;20120;-60
2023/03/04 03:23:42;;;;;;;110.75;75.68;;;0.30;99.90;;;;;;5052375;28;20053;-60
2023/03/04 03:26:08;;;;;;;156.80;107.78;;;0.20;99.90;;;;;;5051945;28;20052;-60
2023/03/04 03:28:34;;;;;;;180.13;122.25;;;0.30;99.90;;;;;;5052138;28;20496;-60
2023/03/04 03:31:00;;;;;;;168.25;112.00;;;0.30;99.90;;;;;;5052241;28;20049;-60
2023/03/04 03:33:26;;;;;;;147.75;98.40;;;0.30;99.90;;;;;;5052114;28;20393;-61
2023/03/04 03:35:52;;;;;;;97.45;64.07;;;0.30;99.90;;;;;;5052348;28;20033;-61
2023/03/04 03:38:17;;;;;;;83.07;55.10;;;0.20;99.90;;;;;;5052109;28;20021;-60
2023/03/04 03:40:43;;;;;;;128.05;86.90;;;0.20;99.90;;;;;;5052171;28;20035;-60
2023/03/04 03:43:09;;;;;;;132.30;96.70;;;0.20;99.90;;;;;;5052085;28;20025;-60
2023/03/04 03:45:35;;;;;;;103.50;68.53;;;0.10;99.90;;;;;;5052489;28;20039;-60
2023/03/04 03:48:00;;;;;;;86.20;57.40;;;0.10;99.90;;;;;;5052000;28;20485;-60
2023/03/04 03:50:27;;;;;;;76.30;54.72;;;0.00;99.90;;;;;;5051886;28;20094;-60
2023/03/04 03:52:53;;;;;;;73.60;46.60;;;0.10;99.90;;;;;;5052247;28;20032;-60
2023/03/04 03:55:19;;;;;;;66.68;44.45;;;-0.20;99.90;;;;;;5051671;28;20025;-60
2023/03/04 03:57:45;;;;;;;65.32;44.00;;;-0.20;99.90;;;;;;5050716;28;20056;-60
2023/03/04 04:00:12;;;;;;;65.03;43.25;;;-0.30;99.90;;;;;;5052258;28;20038;-60
2023/03/04 04:02:37;;;;;;;66.45;43.63;;;-0.20;99.90;;;;;;5051956;28;20021;-59
2023/03/04 04:05:04;;;;;;;66.93;42.20;;;-0.20;99.90;;;;;;5053555;28;20484;-60
2023/03/04 04:07:29;;;;;;;63.00;41.55;;;-0.40;99.90;;;;;;5055961;28;20085;-60
2023/03/04 04:09:55;;;;;;;60.47;39.58;;;-0.50;99.90;;;;;;5055702;28;20498;-60
2023/03/04 04:12:21;;;;;;;58.70;39.42;;;-0.50;99.90;;;;;;5055947;28;20033;-60
2023/03/04 04:14:47;;;;;;;64.00;40.83;;;-0.50;99.90;;;;;;5055687;28;20048;-60
2023/03/04 04:17:12;;;;;;;66.10;42.80;;;-0.70;99.90;;;;;;5055965;28;20029;-60
2023/03/04 04:19:39;;;;;;;62.83;40.03;;;-0.60;99.90;;;;;;5055719;28;20482;-59
2023/03/04 04:22:07;;;;;;;62.63;40.85;;;-0.70;99.90;;;;;;5055732;28;20422;-60
2023/03/04 04:24:33;;;;;;;56.72;38.95;;;-0.70;99.90;;;;;;5056269;28;20515;-60
2023/03/04 04:27:00;;;;;;;62.38;39.55;;;-0.70;99.90;;;;;;5055439;28;20101;-60
2023/03/04 04:29:25;;;;;;;62.47;40.35;;;-0.60;99.90;;;;;;5055973;28;20492;-60
2023/03/04 04:31:51;;;;;;;61.20;40.70;;;-0.60;99.90;;;;;;5055809;28;20037;-59
2023/03/04 04:34:17;;;;;;;64.03;41.50;;;-0.60;99.90;;;;;;5055646;28;20021;-60
2023/03/04 04:36:43;;;;;;;63.75;40.90;;;-0.50;99.90;;;;;;5055156;28;20035;-59
2023/03/04 04:39:09;;;;;;;66.15;41.50;;;-0.40;99.90;;;;;;5055245;28;20071;-60
2023/03/04 04:41:40;;;;;;;72.07;46.97;;;-0.50;99.90;;;;;;5054337;28;20029;-59
2023/03/04 04:44:07;;;;;;;68.65;48.72;;;-0.50;99.90;;;;;;5055179;28;20025;-60
2023/03/04 04:46:33;;;;;;;79.60;53.80;;;-0.40;99.90;;;;;;5055633;28;20545;-60
2023/03/04 04:48:59;;;;;;;66.13;45.58;;;-0.40;99.90;;;;;;5055391;28;20117;-60
2023/03/04 04:51:24;;;;;;;74.70;51.83;;;-0.40;99.90;;;;;;5054853;28;20029;-59
2023/03/04 04:53:50;;;;;;;67.40;46.13;;;-0.50;99.90;;;;;;5055310;28;20096;-59
2023/03/04 04:56:21;;;;;;;62.47;41.65;;;-0.50;99.90;;;;;;5055149;28;20537;-60
2023/03/04 04:58:47;;;;;;;64.05;41.95;;;-0.60;99.90;;;;;;5055031;28;20028;-59
2023/03/04 05:01:14;;;;;;;60.83;42.05;;;-0.80;99.90;;;;;;5055189;28;20044;-60
2023/03/04 05:03:40;;;;;;;67.50;42.53;;;-0.80;99.90;;;;;;5055165;28;20029;-59
2023/03/04 05:06:08;;;;;;;62.35;41.83;;;-0.70;99.90;;;;;;5054582;28;20099;-60
2023/03/04 05:08:35;;;;;;;63.55;41.72;;;-0.70;99.90;;;;;;5054876;28;20028;-60
2023/03/04 05:11:01;;;;;;;67.45;43.35;;;-0.60;99.90;;;;;;5054783;28;20033;-60
2023/03/04 05:13:27;;;;;;;75.63;50.67;;;-0.70;99.90;;;;;;5054756;28;20060;-60
2023/03/04 05:15:54;;;;;;;89.00;56.28;;;-0.70;99.90;;;;;;5054458;28;20029;-59
2023/03/04 05:18:22;;;;;;;72.18;48.60;;;-0.80;99.90;;;;;;5054890;28;20116;-60
2023/03/04 05:20:52;;;;;;;69.43;45.35;;;-0.90;99.90;;;;;;5054336;28;20037;-58
2023/03/04 05:23:18;;;;;;;65.68;44.42;;;-1.00;99.90;;;;;;5053356;28;20028;-59
2023/03/04 05:25:44;;;;;;;65.35;42.92;;;-1.10;99.90;;;;;;5053392;28;20482;-59
2023/03/04 05:28:12;;;;;;;60.17;41.92;;;-1.10;99.90;;;;;;5054401;28;20028;-59
2023/03/04 05:30:42;;;;;;;62.63;41.63;;;-1.10;99.90;;;;;;5054501;28;20039;-59
2023/03/04 05:33:09;;;;;;;63.72;42.95;;;-1.20;99.90;;;;;;5054564;28;20031;-58
2023/03/04 05:35:36;;;;;;;66.47;42.83;;;-1.00;99.90;;;;;;5054310;28;20036;-57
2023/03/04 05:38:04;;;;;;;64.68;41.47;;;-0.90;99.90;;;;;;5054218;28;20548;-60
2023/03/04 05:40:30;;;;;;;62.72;41.75;;;-1.00;99.90;;;;;;5054226;28;20029;-59
2023/03/04 05:42:55;;;;;;;66.88;42.55;;;-1.10;99.90;;;;;;5054478;28;20102;-58
2023/03/04 05:45:22;;;;;;;74.95;47.13;;;-1.10;99.90;;;;;;5054181;28;20029;-59
2023/03/04 05:47:48;;;;;;;75.80;49.97;;;-1.30;99.90;;;;;;5054029;28;20021;-59
2023/03/04 05:50:13;;;;;;;80.00;51.58;;;-1.40;99.90;;;;;;5054062;28;20086;-59
2023/03/04 05:52:39;;;;;;;76.72;51.22;;;-1.50;99.90;;;;;;5053956;28;20444;-58
2023/03/04 05:55:05;;;;;;;86.82;55.42;;;-1.60;99.90;;;;;;5054064;28;20025;-58
2023/03/04 05:57:31;;;;;;;91.35;57.42;;;-1.60;99.90;;;;;;5054010;28;20078;-59
2023/03/04 05:59:57;;;;;;;93.97;55.80;;;-1.40;99.90;;;;;;5053952;28;20029;-59
2023/03/04 06:02:22;;;;;;;100.25;57.33;;;-1.40;99.90;;;;;;5053787;28;20466;-59
2023/03/04 06:04:48;;;;;;;96.47;55.72;;;-1.30;99.90;;;;;;5052764;28;20079;-59
2023/03/04 06:07:14;;;;;;;88.70;54.38;;;-1.20;99.90;;;;;;5053543;28;20024;-59
2023/03/04 06:09:39;;;;;;;79.93;47.92;;;-1.20;99.90;;;;;;5053803;28;20036;-60
2023/03/04 06:12:05;;;;;;;73.43;46.92;;;-1.30;99.90;;;;;;5053651;28;20033;-60
2023/03/04 06:14:31;;;;;;;96.03;55.00;;;-1.20;99.90;;;;;;5053617;28;20041;-60
2023/03/04 06:16:57;;;;;;;104.18;63.00;;;-1.10;99.90;;;;;;5053624;28;20108;-60
2023/03/04 06:19:22;;;;;;;102.97;64.72;;;-0.90;99.90;;;;;;5053128;28;20099;-60
2023/03/04 06:21:48;;;;;;;122.70;72.65;;;-0.90;99.90;;;;;;5053680;28;20025;-60
2023/03/04 06:24:14;;;;;;;123.90;74.93;;;-0.90;99.90;;;;;;5053406;28;20021;-60
2023/03/04 06:26:39;;;;;;;115.68;64.53;;;-0.80;99.90;;;;;;5053341;28;20025;-60
2023/03/04 06:29:05;;;;;;;113.70;67.18;;;-0.70;99.90;;;;;;5052814;28;20466;-60
2023/03/04 06:31:31;;;;;;;111.85;68.20;;;-0.70;99.90;;;;;;5053251;28;20116;-60
2023/03/04 06:33:57;;;;;;;113.90;65.47;;;-0.70;99.90;;;;;;5053063;28;20037;-59
2023/03/04 06:36:22;;;;;;;100.70;60.60;;;-0.80;99.90;;;;;;5053384;28;20025;-60
2023/03/04 06:38:49;;;;;;;101.15;56.67;;;-0.80;99.90;;;;;;5053417;28;20406;-60
2023/03/04 06:41:15;;;;;;;102.45;60.47;;;-0.80;99.90;;;;;;5053192;28;20029;-60
2023/03/04 06:43:40;;;;;;;97.10;57.47;;;-0.80;99.90;;;;;;5053075;28;20024;-60
2023/03/04 06:46:07;;;;;;;103.65;57.17;;;-0.70;99.90;;;;;;5053328;28;20099;-60
2023/03/04 06:48:33;;;;;;;96.95;55.53;;;-0.80;99.90;;;;;;5053041;28;20033;-60
2023/03/04 06:51:05;;;;;;;100.07;55.03;;;-0.80;99.90;;;;;;5052755;28;20044;-60
2023/03/04 06:53:31;;;;;;;100.22;55.25;;;-0.70;99.90;;;;;;5052811;28;20100;-60
2023/03/04 06:55:57;;;;;;;98.15;55.67;;;-0.50;99.90;;;;;;5052840;28;20104;-60
2023/03/04 06:58:22;;;;;;;97.95;57.42;;;-0.20;99.90;;;;;;5053247;28;20087;-60
2023/03/04 07:00:48;;;;;;;113.05;64.22;;;0.10;99.90;;;;;;5052857;28;20624;-59
2023/03/04 07:03:14;;;;;;;139.23;77.38;;;0.30;99.90;;;;;;5052404;28;20033;-60
2023/03/04 07:05:39;;;;;;;104.53;59.22;;;0.70;99.90;;;;;;5052594;28;20032;-60
2023/03/04 07:08:06;;;;;;;110.25;64.95;;;1.10;99.90;;;;;;5052858;28;20048;-60
2023/03/04 07:10:32;;;;;;;189.52;105.60;;;1.40;99.90;;;;;;5052654;28;20452;-60
2023/03/04 07:12:58;;;;;;;165.85;98.05;;;1.40;99.90;;;;;;5052377;28;20048;-59
2023/03/04 07:15:23;;;;;;;137.85;85.57;;;1.80;99.90;;;;;;5052889;28;20025;-60
2023/03/04 07:17:49;;;;;;;80.55;54.22;;;1.90;99.90;;;;;;5052123;28;20108;-60
2023/03/04 07:20:15;;;;;;;71.30;49.42;;;1.60;99.90;;;;;;5051145;28;20021;-60
2023/03/04 07:22:40;;;;;;;68.28;48.05;;;2.70;99.90;;;;;;5052913;28;20113;-60
2023/03/04 07:25:06;;;;;;;72.70;51.72;;;3.40;99.90;;;;;;5052392;28;20566;-60
2023/03/04 07:27:32;;;;;;;79.03;53.65;;;4.00;99.90;;;;;;5052275;28;20021;-60
2023/03/04 07:29:58;;;;;;;75.82;52.08;;;4.20;99.90;;;;;;5052304;28;20020;-60
2023/03/04 07:32:24;;;;;;;75.40;50.95;;;4.50;99.90;;;;;;5052460;28;20029;-60
2023/03/04 07:34:50;;;;;;;72.57;51.40;;;5.20;99.90;;;;;;5052182;28;20027;-60
2023/03/04 07:37:16;;;;;;;78.45;55.00;;;5.50;99.90;;;;;;5052475;28;20440;-60
2023/03/04 07:39:42;;;;;;;74.93;53.35;;;5.90;99.90;;;;;;5052020;28;20024;-60
2023/03/04 07:42:07;;;;;;;78.53;55.35;;;6.40;99.90;;;;;;5052131;28;20036;-60
2023/03/04 07:44:33;;;;;;;77.22;57.20;;;6.40;99.90;;;;;;5052053;28;20033;-60
2023/03/04 07:46:59;;;;;;;71.93;52.85;;;6.90;99.90;;;;;;5052051;28;20112;-60
2023/03/04 07:49:24;;;;;;;79.45;56.92;;;8.10;99.90;;;;;;5051757;28;20025;-60
2023/03/04 07:51:50;;;;;;;72.90;52.83;;;8.10;99.90;;;;;;5052046;28;20033;-61
2023/03/04 07:54:18;;;;;;;63.53;53.67;;;8.70;99.90;;;;;;5052326;28;20025;-60
2023/03/04 07:56:45;;;;;;;58.45;50.45;;;9.60;99.90;;;;;;5052065;28;20461;-61
2023/03/04 07:59:10;;;;;;;68.28;49.95;;;9.60;99.90;;;;;;5051985;28;20516;-60
2023/03/04 08:01:37;;;;;;;54.05;47.67;;;10.10;99.90;;;;;;5051619;28;20029;-61
2023/03/04 08:04:04;;;;;;;54.50;48.58;;;11.30;99.90;;;;;;5052196;28;20021;-60
2023/03/04 08:06:31;;;;;;;61.05;53.40;;;11.40;99.90;;;;;;5051984;28;20158;-61
2023/03/04 08:09:04;;;;;;;64.03;54.90;;;11.90;99.90;;;;;;5051892;28;20017;-60
2023/03/04 08:11:31;;;;;;;67.55;55.40;;;12.00;99.90;;;;;;5051735;28;20037;-61
2023/03/04 08:13:57;;;;;;;72.28;56.15;;;12.10;99.90;;;;;;5052180;28;20057;-61
2023/03/04 08:16:24;;;;;;;69.40;59.42;;;12.40;99.90;;;;;;5051495;28;20412;-61
2023/03/04 08:18:53;;;;;;;69.22;59.10;;;12.60;99.90;;;;;;5051612;28;20024;-61
2023/03/04 08:21:20;;;;;;;66.60;56.25;;;12.60;99.90;;;;;;5051774;28;20052;-61
2023/03/04 08:23:46;;;;;;;62.47;52.33;;;12.90;99.90;;;;;;5050878;28;20021;-61
2023/03/04 08:26:19;;;;;;;54.92;47.13;;;14.00;99.90;;;;;;5051711;28;20116;-62
2023/03/04 08:28:45;;;;;;;54.05;45.95;;;14.60;99.90;;;;;;5051227;28;20028;-61
2023/03/04 08:31:12;;;;;;;43.33;37.88;;;15.50;99.90;;;;;;5051521;28;20041;-61
2023/03/04 08:33:38;;;;;;;41.53;37.05;;;17.30;99.90;;;;;;5051687;28;20186;-61
2023/03/04 08:36:04;;;;;;;42.65;38.00;;;16.40;99.90;;;;;;5051643;28;20060;-61
2023/03/04 08:38:31;;;;;;;40.08;35.72;;;15.90;99.90;;;;;;5052257;28;20040;-62
2023/03/04 08:40:57;;;;;;;37.22;33.33;;;16.50;99.90;;;;;;5051533;28;20032;-62
2023/03/04 08:43:24;;;;;;;40.00;34.80;;;17.10;99.90;;;;;;5051063;28;20466;-62
2023/03/04 08:45:51;;;;;;;37.65;33.58;;;17.50;99.90;;;;;;5051582;28;20389;-61
2023/03/04 08:48:17;;;;;;;43.70;38.72;;;19.20;99.90;;;;;;5051371;28;20561;-61
2023/03/04 08:50:46;;;;;;;42.83;36.85;;;18.90;99.90;;;;;;5052409;28;20098;-61
2023/03/04 08:53:13;;;;;;;41.15;36.65;;;18.70;99.90;;;;;;5055639;28;20025;-61
2023/03/04 08:55:40;;;;;;;43.80;38.67;;;19.40;99.90;;;;;;5055179;28;20021;-61
2023/03/04 08:58:06;;;;;;;44.33;39.55;;;18.40;99.90;;;;;;5054681;28;20478;-61
2023/03/04 09:00:34;;;;;;;46.08;39.85;;;19.40;99.90;;;;;;5055032;28;20029;-62
2023/03/04 09:02:59;;;;;;;39.75;35.42;;;19.60;99.50;;;;;;5055409;28;20033;-62
2023/03/04 09:05:26;;;;;;;42.90;36.83;;;21.50;98.60;;;;;;5055005;28;20021;-62
2023/03/04 09:07:53;;;;;;;43.05;37.60;;;21.50;97.80;;;;;;5053650;28;20036;-62
2023/03/04 09:10:18;;;;;;;43.58;38.92;;;21.60;97.30;;;;;;5054782;28;20052;-62
2023/03/04 09:12:45;;;;;;;42.95;38.35;;;21.60;96.30;;;;;;5054376;28;20017;-62
2023/03/04 09:15:11;;;;;;;42.25;37.05;;;21.00;95.70;;;;;;5055076;28;20036;-62
2023/03/04 09:17:38;;;;;;;41.75;37.17;;;21.60;96.50;;;;;;5054936;28;20048;-62
2023/03/04 09:20:07;;;;;;;42.20;37.28;;;23.00;94.90;;;;;;5054744;28;20028;-62
2023/03/04 09:22:32;;;;;;;47.15;40.67;;;24.60;94.20;;;;;;5054844;28;20385;-62
2023/03/04 09:24:58;;;;;;;46.42;41.35;;;22.20;93.00;;;;;;5054741;28;20036;-62
2023/03/04 09:27:24;;;;;;;48.75;43.03;;;20.60;94.80;;;;;;5054257;28;20025;-62
2023/03/04 09:29:49;;;;;;;42.65;38.00;;;19.70;95.50;;;;;;5054454;28;20029;-63
2023/03/04 09:32:15;;;;;;;43.45;38.70;;;21.70;97.30;;;;;;5054777;28;20064;-62
2023/03/04 09:34:42;;;;;;;57.35;44.72;;;22.50;95.20;;;;;;5053232;28;20040;-62
2023/03/04 09:37:07;;;;;;;43.90;38.72;;;21.50;96.30;;;;;;5054371;28;20033;-62
2023/03/04 09:39:33;;;;;;;52.17;46.50;;;23.40;94.80;;;;;;5054358;28;20404;-62
2023/03/04 09:42:00;;;;;;;42.45;37.95;;;24.50;93.90;;;;;;5054411;28;20028;-62
2023/03/04 09:44:35;;;;;;;43.65;37.65;;;24.40;92.80;;;;;;5054201;28;20029;-63
2023/03/04 09:47:10;;;;;;;42.45;38.00;;;21.80;93.90;;;;;;5054275;28;20044;-62
2023/03/04 09:49:38;;;;;;;42.65;38.13;;;22.80;95.40;;;;;;5054094;28;20021;-62
2023/03/04 09:52:26;;;;;;;40.08;35.78;;;23.80;93.10;;;;;;5054148;28;20040;-62
2023/03/04 09:55:24;;;;;;;42.90;38.30;;;23.50;92.90;;;;;;5054182;28;20478;-63
2023/03/04 09:58:06;;;;;;;41.28;36.92;;;22.90;93.10;;;;;;5053694;28;20405;-63
2023/03/04 10:00:43;;;;;;;46.88;40.65;;;23.00;91.70;;;;;;5054108;28;20035;-63
2023/03/04 10:03:08;;;;;;;40.05;35.85;;;24.30;92.90;;;;;;5053197;28;20027;-62
2023/03/04 10:05:56;;;;;;;39.05;34.97;;;23.80;92.30;;;;;;5053764;28;20452;-62
2023/03/04 10:08:40;;;;;;;36.28;32.25;;;23.80;91.90;;;;;;5053762;28;20032;-62
2023/03/04 10:11:29;;;;;;;36.38;32.42;;;22.90;92.00;;;;;;5053370;28;20032;-62
2023/03/04 10:14:20;;;;;;;38.20;34.17;;;23.10;91.40;;;;;;5031333;28;20132;-62
2023/03/04 10:16:56;;;;;;;39.63;35.42;;;22.20;92.70;;;;;;5031462;28;20037;-62
2023/03/04 10:19:43;;;;;;;41.05;35.95;;;22.40;91.40;;;;;;5031362;28;20453;-62
2023/03/04 10:22:47;;;;;;;42.05;37.53;;;21.30;92.10;;;;;;5031773;28;20052;-62
2023/03/04 10:25:19;;;;;;;41.85;37.33;;;20.80;91.30;;;;;;5031072;28;20033;-62
2023/03/04 10:28:04;;;;;;;42.88;36.10;;;20.40;91.40;;;;;;5031364;28;20064;-62
2023/03/04 10:30:49;;;;;;;38.10;33.97;;;18.70;93.20;;;;;;5031598;28;20502;-62
2023/03/04 10:33:18;;;;;;;42.13;37.65;;;17.60;92.10;;;;;;5031625;28;20026;-62
2023/03/04 10:36:00;;;;;;;37.55;33.60;;;18.40;92.80;;;;;;5031293;28;20028;-62
2023/03/04 10:38:30;;;;;;;42.03;37.45;;;17.50;91.90;;;;;;5031082;28;20111;-62
2023/03/04 10:40:57;;;;;;;36.30;32.55;;;17.10;93.90;;;;;;5030722;28;20435;-62
2023/03/04 10:43:23;;;;;;;42.13;36.53;;;18.70;92.70;;;;;;5030634;28;20029;-62
2023/03/04 10:45:55;;;;;;;38.50;34.50;;;16.90;92.20;;;;;;5030962;28;20534;-62
2023/03/04 10:48:27;;;;;;;38.58;34.10;;;16.70;93.50;;;;;;5030914;28;20022;-62
2023/03/04 10:50:53;;;;;;;44.35;39.55;;;18.20;92.30;;;;;;5022559;28;20073;-62
2023/03/04 10:53:35;;;;;;;37.55;33.70;;;17.60;93.60;;;;;;5013238;28;20018;-62
2023/03/04 10:56:02;;;;;;;42.60;37.97;;;19.70;93.40;;;;;;5012910;28;20030;-62
2023/03/04 10:58:28;;;;;;;38.83;34.72;;;18.40;91.60;;;;;;5013209;28;20099;-62
2023/03/04 11:01:03;;;;;;;37.50;33.60;;;18.90;93.30;;;;;;5013462;28;20112;-62
2023/03/04 11:03:35;;;;;;;39.75;35.05;;;18.40;92.70;;;;;;5013221;28;20018;-62
2023/03/04 11:06:21;;;;;;;39.92;35.03;;;18.50;92.30;;;;;;5012967;28;20037;-62
2023/03/04 11:08:56;;;;;;;37.95;33.85;;;19.00;92.20;;;;;;5012563;28;20430;-62
2023/03/04 11:11:41;;;;;;;36.58;32.72;;;19.70;92.30;;;;;;5012857;28;20041;-62
2023/03/04 11:14:34;;;;;;;39.08;34.88;;;20.40;91.50;;;;;;5025829;28;20049;-62
2023/03/04 11:17:13;;;;;;;37.58;33.53;;;20.20;92.70;;;;;;5032740;28;20061;-63
2023/03/04 11:19:41;;;;;;;37.67;33.72;;;20.30;93.80;;;;;;5032593;28;20506;-62
2023/03/04 11:22:12;;;;;;;39.00;33.88;;;20.10;91.60;;;;;;5032567;28;20091;-63
2023/03/04 11:24:38;;;;;;;36.60;32.70;;;20.20;92.60;;;;;;5032383;28;20375;-62
2023/03/04 11:27:10;;;;;;;38.53;34.30;;;20.40;92.40;;;;;;5032466;28;20078;-63
2023/03/04 11:29:45;;;;;;;52.27;46.57;;;20.30;92.10;;;;;;5032382;28;20104;-63
2023/03/04 11:32:24;;;;;;;37.10;33.22;;;20.40;92.50;;;;;;5032678;28;20532;-63
2023/03/04 11:35:14;;;;;;;37.72;33.65;;;20.10;91.10;;;;;;5032373;28;20369;-62
2023/03/04 11:37:51;;;;;;;36.38;32.50;;;20.20;90.60;;;;;;5031976;28;20538;-62
2023/03/04 11:40:28;;;;;;;39.10;35.00;;;20.40;91.70;;;;;;5032349;28;20017;-62
2023/03/04 11:43:03;;;;;;;37.88;33.88;;;19.20;91.20;;;;;;5034883;28;20034;-62
2023/03/04 11:45:47;;;;;;;41.50;35.38;;;18.90;92.70;;;;;;5052290;28;20039;-62
2023/03/04 11:48:49;;;;;;;39.60;35.17;;;19.50;92.20;;;;;;5051890;28;20428;-63
2023/03/04 11:51:33;;;;;;;39.72;35.45;;;18.30;91.50;;;;;;5052064;28;20028;-63
2023/03/04 11:54:37;;;;;;;46.50;39.53;;;18.90;92.50;;;;;;5051621;28;20025;-63
2023/03/04 11:57:27;;;;;;;42.47;37.95;;;20.10;92.60;;;;;;5029896;28;20044;-62
2023/03/04 12:00:03;;;;;;;43.08;38.30;;;18.80;91.40;;;;;;5029924;28;20040;-62
2023/03/04 12:02:45;;;;;;;42.92;37.65;;;17.80;92.50;;;;;;5029835;28;20038;-62
2023/03/04 12:05:29;;;;;;;41.83;37.38;;;18.80;92.40;;;;;;5029807;28;20037;-62
2023/03/04 12:08:13;;;;;;;41.53;35.38;;;18.20;93.60;;;;;;5029737;28;20040;-63
2023/03/04 12:11:14;;;;;;;43.30;38.50;;;18.50;93.10;;;;;;5030065;28;20030;-63
2023/03/04 12:14:05;;;;;;;42.22;37.65;;;18.30;92.60;;;;;;5029552;28;20056;-63
2023/03/04 12:16:54;;;;;;;41.95;37.45;;;16.30;94.20;;;;;;5029704;28;20437;-62
2023/03/04 12:19:32;;;;;;;44.97;39.95;;;15.50;93.90;;;;;;5029590;28;20040;-63
2023/03/04 12:22:31;;;;;;;42.83;38.42;;;15.30;94.30;;;;;;5029433;28;20095;-62
2023/03/04 12:25:15;;;;;;;43.75;39.05;;;15.50;94.30;;;;;;5029587;28;20037;-62
2023/03/04 12:27:55;;;;;;;43.65;38.95;;;15.60;94.30;;;;;;5033550;28;20556;-62
2023/03/04 12:30:42;;;;;;;41.60;37.17;;;16.20;94.10;;;;;;5033980;28;20040;-62
2023/03/04 12:33:49;;;;;;;40.70;36.50;;;17.50;93.80;;;;;;5038085;28;20406;-62
2023/03/04 12:36:36;;;;;;;41.95;37.50;;;18.20;92.90;;;;;;5055219;28;20375;-62
2023/03/04 12:39:20;;;;;;;37.65;33.72;;;17.40;92.80;;;;;;5055740;28;20031;-62
2023/03/04 12:42:22;;;;;;;41.15;36.67;;;17.80;93.80;;;;;;5055932;28;20101;-63